createdAt,value
2024-01-26T00:00:50.886Z,10.27
2024-01-26T00:03:14.139Z,10.24
2024-01-26T00:05:36.017Z,10.20
2024-01-26T00:07:58.290Z,10.19
2024-01-26T00:10:20.409Z,10.16
2024-01-26T00:12:42.917Z,10.09
2024-01-26T00:15:05.024Z,10.03
2024-01-26T00:17:27.012Z,9.99
2024-01-26T00:19:49.447Z,10.02
2024-01-26T00:22:11.385Z,10.01
2024-01-26T00:24:33.496Z,9.98
2024-01-26T00:26:55.424Z,9.93
2024-01-26T00:29:17.516Z,9.96
2024-01-26T00:31:39.466Z,10.00
2024-01-26T00:34:01.421Z,10.02
2024-01-26T00:36:23.404Z,10.03
2024-01-26T00:38:45.305Z,10.04
2024-01-26T00:41:07.452Z,9.98
2024-01-26T00:43:29.411Z,9.93
2024-01-26T00:45:51.334Z,9.97
2024-01-26T00:48:13.395Z,10.01
2024-01-26T00:50:36.111Z,10.03
2024-01-26T00:52:58.534Z,10.03
2024-01-26T00:55:20.796Z,10.03
2024-01-26T00:57:42.685Z,10.02
2024-01-26T01:00:08.390Z,10.06
2024-01-26T01:02:30.361Z,10.07
2024-01-26T01:04:52.495Z,10.10
2024-01-26T01:07:14.412Z,10.12
2024-01-26T01:09:36.932Z,10.15
2024-01-26T01:11:59.331Z,10.14
2024-01-26T01:14:23.046Z,10.19
2024-01-26T01:16:46.484Z,10.17
2024-01-26T01:19:08.696Z,10.13
2024-01-26T01:21:31.227Z,10.12
2024-01-26T01:23:53.092Z,10.17
2024-01-26T01:26:17.451Z,10.16
2024-01-26T01:28:39.556Z,10.22
2024-01-26T01:31:01.799Z,10.23
2024-01-26T01:33:23.925Z,10.25
2024-01-26T01:35:45.906Z,10.28
2024-01-26T01:38:07.789Z,10.29
2024-01-26T01:40:29.635Z,10.28
2024-01-26T01:42:51.617Z,10.23
2024-01-26T01:45:15.400Z,10.23
2024-01-26T01:47:37.514Z,10.25
2024-01-26T01:49:59.521Z,10.25
2024-01-26T01:52:22.217Z,10.26
2024-01-26T01:54:44.734Z,10.28
2024-01-26T01:57:06.918Z,10.31
2024-01-26T01:59:29.779Z,10.28
2024-01-26T02:01:51.772Z,10.27
2024-01-26T02:04:13.614Z,10.30
2024-01-26T02:06:35.577Z,10.28
2024-01-26T02:08:57.816Z,10.25
2024-01-26T02:11:22.778Z,10.25
2024-01-26T02:13:44.642Z,10.27
2024-01-26T02:16:07.503Z,10.28
2024-01-26T02:18:29.483Z,10.30
2024-01-26T02:20:55.518Z,10.29
2024-01-26T02:23:24.986Z,10.29
2024-01-26T02:25:46.880Z,10.26
2024-01-26T02:28:08.748Z,10.23
2024-01-26T02:30:34.723Z,10.19
2024-01-26T02:32:56.716Z,10.22
2024-01-26T02:35:18.668Z,10.23
2024-01-26T02:37:40.591Z,10.23
2024-01-26T02:40:02.526Z,10.20
2024-01-26T02:42:24.401Z,10.22
2024-01-26T02:44:46.474Z,10.21
2024-01-26T02:47:08.474Z,10.27
2024-01-26T02:49:32.473Z,10.22
2024-01-26T02:51:54.430Z,10.17
2024-01-26T02:54:16.421Z,10.13
2024-01-26T02:56:38.584Z,10.03
2024-01-26T02:59:00.499Z,10.03
2024-01-26T03:01:22.556Z,10.02
2024-01-26T03:03:44.487Z,10.00
2024-01-26T03:06:07.425Z,10.03
2024-01-26T03:08:29.368Z,10.06
2024-01-26T03:10:51.958Z,10.05
2024-01-26T03:13:13.864Z,10.02
2024-01-26T03:15:36.110Z,10.09
2024-01-26T03:17:58.170Z,10.04
2024-01-26T03:20:20.257Z,10.04
2024-01-26T03:22:44.484Z,9.98
2024-01-26T03:25:07.275Z,9.96
2024-01-26T03:27:29.166Z,9.98
2024-01-26T03:29:51.080Z,9.96
2024-01-26T03:32:12.994Z,10.01
2024-01-26T03:34:35.316Z,9.99
2024-01-26T03:36:57.343Z,9.97
2024-01-26T03:39:19.835Z,10.01
2024-01-26T03:41:42.505Z,9.94
2024-01-26T03:44:04.673Z,9.92
2024-01-26T03:46:26.701Z,9.98
2024-01-26T03:48:49.512Z,10.05
2024-01-26T03:51:12.516Z,9.98
2024-01-26T03:53:34.550Z,9.98
2024-01-26T03:55:56.512Z,10.02
2024-01-26T03:58:18.365Z,10.01
2024-01-26T04:00:40.319Z,10.04
2024-01-26T04:03:02.812Z,9.99
2024-01-26T04:05:24.709Z,10.04
2024-01-26T04:07:46.592Z,10.06
2024-01-26T04:10:09.090Z,10.11
2024-01-26T04:12:31.003Z,10.11
2024-01-26T04:14:52.958Z,10.11
2024-01-26T04:17:14.888Z,10.08
2024-01-26T04:19:36.805Z,10.10
2024-01-26T04:21:58.702Z,10.16
2024-01-26T04:24:20.840Z,10.19
2024-01-26T04:26:43.070Z,10.19
2024-01-26T04:29:05.044Z,10.25
2024-01-26T04:31:27.013Z,10.30
2024-01-26T04:33:49.293Z,10.34
2024-01-26T04:36:11.333Z,10.33
2024-01-26T04:38:33.263Z,10.36
2024-01-26T04:40:55.119Z,10.37
2024-01-26T04:43:17.071Z,10.39
2024-01-26T04:45:38.905Z,10.43
2024-01-26T04:48:01.016Z,10.43
2024-01-26T04:50:23.152Z,10.46
2024-01-26T04:52:45.060Z,10.50
2024-01-26T04:55:07.430Z,10.50
2024-01-26T04:57:29.357Z,10.53
2024-01-26T04:59:51.313Z,10.53
2024-01-26T05:02:13.242Z,10.53
2024-01-26T05:04:35.136Z,10.49
2024-01-26T05:06:57.317Z,10.51
2024-01-26T05:09:20.070Z,10.50
2024-01-26T05:11:42.052Z,10.44
2024-01-26T05:14:03.944Z,10.44
2024-01-26T05:16:26.054Z,10.49
2024-01-26T05:18:48.064Z,10.48
2024-01-26T05:21:10.110Z,10.46
2024-01-26T05:23:32.101Z,10.48
2024-01-26T05:25:54.066Z,10.48
2024-01-26T05:28:16.020Z,10.47
2024-01-26T05:30:37.922Z,10.50
2024-01-26T05:32:59.972Z,10.48
2024-01-26T05:35:22.463Z,10.52
2024-01-26T05:37:44.372Z,10.48
2024-01-26T05:40:07.813Z,10.42
2024-01-26T05:42:29.817Z,10.40
2024-01-26T05:44:51.852Z,10.37
2024-01-26T05:47:13.823Z,10.33
2024-01-26T05:49:35.936Z,10.31
2024-01-26T05:51:57.988Z,10.36
2024-01-26T05:54:19.917Z,10.32
2024-01-26T05:56:42.349Z,10.29
2024-01-26T05:59:04.261Z,10.30
2024-01-26T06:01:26.209Z,10.29
2024-01-26T06:03:48.115Z,10.29
2024-01-26T06:06:10.149Z,10.32
2024-01-26T06:08:32.176Z,10.33
2024-01-26T06:10:54.129Z,10.31
2024-01-26T06:13:16.086Z,10.33
2024-01-26T06:15:38.008Z,10.34
2024-01-26T06:18:00.096Z,10.35
2024-01-26T06:20:22.072Z,10.32
2024-01-26T06:22:44.593Z,10.31
2024-01-26T06:25:06.613Z,10.31
2024-01-26T06:27:28.651Z,10.30
2024-01-26T06:29:50.705Z,10.31
2024-01-26T06:32:12.857Z,10.25
2024-01-26T06:34:39.079Z,10.28
2024-01-26T06:37:00.996Z,10.32
2024-01-26T06:39:23.023Z,10.26
2024-01-26T06:41:45.208Z,10.29
2024-01-26T06:44:07.937Z,10.30
2024-01-26T06:46:29.830Z,10.30
2024-01-26T06:48:52.504Z,10.34
2024-01-26T06:51:14.698Z,10.32
2024-01-26T06:53:36.711Z,10.37
2024-01-26T06:55:58.613Z,10.43
2024-01-26T06:58:20.601Z,10.38
2024-01-26T07:00:44.565Z,10.42
2024-01-26T07:03:07.223Z,10.43
2024-01-26T07:05:29.297Z,10.43
2024-01-26T07:07:51.329Z,10.47
2024-01-26T07:10:13.385Z,10.48
2024-01-26T07:12:35.280Z,10.45
2024-01-26T07:14:57.205Z,10.44
2024-01-26T07:17:19.835Z,10.47
2024-01-26T07:19:41.733Z,10.48
2024-01-26T07:22:03.864Z,10.50
2024-01-26T07:24:25.920Z,10.45
2024-01-26T07:26:49.069Z,10.48
2024-01-26T07:29:10.983Z,10.43
2024-01-26T07:31:32.896Z,10.43
2024-01-26T07:33:54.931Z,10.38
2024-01-26T07:36:17.383Z,10.34
2024-01-26T07:38:39.401Z,10.35
2024-01-26T07:41:01.346Z,10.36
2024-01-26T07:43:23.239Z,10.39
2024-01-26T07:45:45.072Z,10.40
2024-01-26T07:48:07.474Z,10.42
2024-01-26T07:50:29.515Z,10.43
2024-01-26T07:52:51.437Z,10.48
2024-01-26T07:55:13.276Z,10.42
2024-01-26T07:57:35.202Z,10.41
2024-01-26T07:59:57.204Z,10.43
2024-01-26T08:02:19.784Z,10.48
2024-01-26T08:04:41.936Z,10.50
2024-01-26T08:07:04.081Z,10.59
2024-01-26T08:09:26.085Z,10.59
2024-01-26T08:11:48.292Z,10.69
2024-01-26T08:14:10.672Z,10.78
2024-01-26T08:16:33.661Z,10.76
2024-01-26T08:18:55.906Z,10.78
2024-01-26T08:21:18.051Z,10.78
2024-01-26T08:23:40.145Z,10.69
2024-01-26T08:26:02.402Z,10.79
2024-01-26T08:28:24.608Z,10.82
2024-01-26T08:30:46.641Z,10.83
2024-01-26T08:33:08.664Z,10.81
2024-01-26T08:35:30.831Z,10.80
2024-01-26T08:37:52.930Z,10.83
2024-01-26T08:40:15.810Z,10.85
2024-01-26T08:42:38.026Z,10.78
2024-01-26T08:44:59.936Z,10.82
2024-01-26T08:47:21.838Z,10.86
2024-01-26T08:49:43.830Z,10.87
2024-01-26T08:52:06.727Z,10.84
2024-01-26T08:54:28.612Z,10.91
2024-01-26T08:56:50.565Z,10.94
2024-01-26T08:59:12.663Z,10.87
2024-01-26T09:01:36.226Z,10.93
2024-01-26T09:03:58.207Z,10.96
2024-01-26T09:06:20.344Z,10.96
2024-01-26T09:08:42.927Z,10.96
2024-01-26T09:11:05.789Z,11.00
2024-01-26T09:13:27.772Z,10.98
2024-01-26T09:15:49.630Z,11.02
2024-01-26T09:18:11.939Z,11.04
2024-01-26T09:20:34.130Z,11.13
2024-01-26T09:22:56.065Z,11.17
2024-01-26T09:25:18.263Z,11.23
2024-01-26T09:27:40.245Z,11.32
2024-01-26T09:30:03.074Z,11.34
2024-01-26T09:32:25.071Z,11.31
2024-01-26T09:34:47.087Z,11.28
2024-01-26T09:37:09.087Z,11.32
2024-01-26T09:39:31.006Z,11.34
2024-01-26T09:41:53.165Z,11.44
2024-01-26T09:44:15.214Z,11.43
2024-01-26T09:46:37.423Z,11.51
2024-01-26T09:49:00.476Z,11.48
2024-01-26T09:51:23.452Z,11.47
2024-01-26T09:53:46.088Z,11.53
2024-01-26T09:56:09.707Z,11.60
2024-01-26T09:58:31.677Z,11.62
2024-01-26T10:00:56.404Z,11.67
2024-01-26T10:03:20.365Z,11.63
2024-01-26T10:05:42.856Z,11.53
2024-01-26T10:08:12.218Z,11.52
2024-01-26T10:10:34.206Z,11.58
2024-01-26T10:12:56.817Z,11.56
2024-01-26T10:15:21.875Z,11.58
2024-01-26T10:17:45.173Z,11.54
2024-01-26T10:20:16.143Z,11.59
2024-01-26T10:22:38.933Z,11.65
2024-01-26T10:25:03.596Z,11.71
2024-01-26T10:27:25.779Z,11.76
2024-01-26T10:29:47.870Z,11.81
2024-01-26T10:32:14.150Z,11.82
2024-01-26T10:34:38.787Z,11.86
2024-01-26T10:37:04.132Z,11.89
2024-01-26T10:39:30.399Z,11.96
2024-01-26T10:41:54.497Z,11.99
2024-01-26T10:44:18.084Z,12.01
2024-01-26T10:46:41.258Z,12.03
2024-01-26T10:49:03.907Z,12.06
2024-01-26T10:51:26.473Z,12.07
2024-01-26T10:53:49.578Z,12.12
2024-01-26T10:56:11.451Z,12.14
2024-01-26T10:58:33.357Z,12.15
2024-01-26T11:00:55.966Z,12.23
2024-01-26T11:03:18.124Z,12.22
2024-01-26T11:05:40.834Z,12.19
2024-01-26T11:08:13.597Z,12.20
2024-01-26T11:10:36.745Z,12.23
2024-01-26T11:13:07.308Z,12.23
2024-01-26T11:15:30.100Z,12.21
2024-01-26T11:17:55.055Z,12.25
2024-01-26T11:20:36.106Z,12.27
2024-01-26T11:23:07.471Z,12.24
2024-01-26T11:25:39.013Z,12.19
2024-01-26T11:28:02.128Z,12.20
2024-01-26T11:30:25.423Z,12.25
2024-01-26T11:32:47.588Z,12.25
2024-01-26T11:35:17.597Z,12.25
2024-01-26T11:37:40.292Z,12.27
2024-01-26T11:40:03.493Z,12.36
2024-01-26T11:42:25.824Z,12.40
2024-01-26T11:45:03.128Z,12.39
2024-01-26T11:47:28.452Z,12.38
2024-01-26T11:49:50.676Z,12.42
2024-01-26T11:52:12.639Z,12.45
2024-01-26T11:54:34.921Z,12.45
2024-01-26T11:56:57.029Z,12.46
2024-01-26T11:59:19.181Z,12.46
2024-01-26T12:01:41.065Z,12.44
2024-01-26T12:04:03.596Z,12.52
2024-01-26T12:06:26.353Z,12.55
2024-01-26T12:08:51.265Z,12.56
2024-01-26T12:11:13.989Z,12.57
2024-01-26T12:13:36.781Z,12.58
2024-01-26T12:15:59.041Z,12.60
2024-01-26T12:18:21.102Z,12.61
2024-01-26T12:20:43.469Z,12.57
2024-01-26T12:23:05.915Z,12.58
2024-01-26T12:25:28.937Z,12.58
2024-01-26T12:27:51.224Z,12.60
2024-01-26T12:30:13.495Z,12.64
2024-01-26T12:32:39.123Z,12.64
2024-01-26T12:35:01.399Z,12.67
2024-01-26T12:37:23.679Z,12.66
2024-01-26T12:39:45.561Z,12.59
2024-01-26T12:42:07.533Z,12.57
2024-01-26T12:44:33.796Z,12.57
2024-01-26T12:46:56.611Z,12.54
2024-01-26T12:49:18.970Z,12.48
2024-01-26T12:51:40.972Z,12.46
2024-01-26T12:54:02.920Z,12.43
2024-01-26T12:56:24.906Z,12.43
2024-01-26T12:58:46.885Z,12.37
2024-01-26T13:01:08.839Z,12.30
2024-01-26T13:03:31.092Z,12.24
2024-01-26T13:05:53.564Z,12.25
2024-01-26T13:08:16.053Z,12.27
2024-01-26T13:10:39.887Z,12.25
2024-01-26T13:13:01.898Z,12.26
2024-01-26T13:15:23.923Z,12.30
2024-01-26T13:17:45.970Z,12.35
2024-01-26T13:20:19.390Z,12.35
2024-01-26T13:22:42.613Z,12.37
2024-01-26T13:25:05.052Z,12.37
2024-01-26T13:27:26.928Z,12.36
2024-01-26T13:29:48.987Z,12.42
2024-01-26T13:32:11.268Z,12.39
2024-01-26T13:34:33.269Z,12.41
2024-01-26T13:36:56.063Z,12.37
2024-01-26T13:39:18.836Z,12.38
2024-01-26T13:41:41.805Z,12.38
2024-01-26T13:44:03.825Z,12.43
2024-01-26T13:46:25.710Z,12.43
2024-01-26T13:48:47.798Z,12.47
2024-01-26T13:51:09.751Z,12.49
2024-01-26T13:53:31.914Z,12.50
2024-01-26T13:55:53.853Z,12.52
2024-01-26T13:58:17.088Z,12.54
2024-01-26T14:00:39.040Z,12.54
2024-01-26T14:03:01.053Z,12.57
2024-01-26T14:05:23.042Z,12.60
2024-01-26T14:07:45.179Z,12.64
2024-01-26T14:10:07.657Z,12.66
2024-01-26T14:12:29.552Z,12.69
2024-01-26T14:14:54.180Z,12.71
2024-01-26T14:17:17.468Z,12.72
2024-01-26T14:19:39.398Z,12.72
2024-01-26T14:22:01.411Z,12.72
2024-01-26T14:24:23.509Z,12.65
2024-01-26T14:26:46.559Z,12.62
2024-01-26T14:29:14.051Z,12.63
2024-01-26T14:31:36.823Z,12.64
2024-01-26T14:33:58.878Z,12.59
2024-01-26T14:36:21.787Z,12.60
2024-01-26T14:38:45.057Z,12.63
2024-01-26T14:41:07.052Z,12.64
2024-01-26T14:43:29.905Z,12.71
2024-01-26T14:45:52.879Z,12.79
2024-01-26T14:48:15.208Z,12.85
2024-01-26T14:50:37.524Z,12.91
2024-01-26T14:52:59.496Z,12.95
2024-01-26T14:55:22.380Z,12.95
2024-01-26T14:57:46.616Z,12.99
2024-01-26T15:00:11.297Z,13.00
2024-01-26T15:02:33.367Z,13.06
2024-01-26T15:04:55.292Z,13.09
2024-01-26T15:07:17.317Z,13.09
2024-01-26T15:09:39.293Z,13.11
2024-01-26T15:12:01.396Z,13.07
2024-01-26T15:14:23.343Z,13.03
2024-01-26T15:16:45.328Z,13.02
2024-01-26T15:19:07.543Z,13.03
2024-01-26T15:21:29.782Z,12.99
2024-01-26T15:23:51.700Z,12.98
2024-01-26T15:26:13.630Z,12.93
2024-01-26T15:28:35.515Z,12.84
2024-01-26T15:30:57.400Z,12.81
2024-01-26T15:33:19.382Z,12.71
2024-01-26T15:35:41.514Z,12.53
2024-01-26T15:38:03.680Z,12.54
2024-01-26T15:40:26.054Z,12.46
2024-01-26T15:42:48.008Z,12.34
2024-01-26T15:45:12.111Z,12.19
2024-01-26T15:47:34.320Z,12.08
2024-01-26T15:49:56.391Z,11.94
2024-01-26T15:52:26.783Z,11.89
2024-01-26T15:54:51.971Z,11.80
2024-01-26T15:57:13.865Z,11.70
2024-01-26T15:59:35.899Z,11.66
2024-01-26T16:01:57.884Z,11.64
2024-01-26T16:04:19.858Z,11.53
2024-01-26T16:06:41.758Z,11.49
2024-01-26T16:09:03.781Z,11.33
2024-01-26T16:11:27.824Z,11.21
2024-01-26T16:13:49.930Z,11.18
2024-01-26T16:16:12.836Z,11.07
2024-01-26T16:18:34.863Z,11.00
2024-01-26T16:20:57.225Z,10.90
2024-01-26T16:23:19.127Z,10.68
2024-01-26T16:25:41.010Z,10.65
2024-01-26T16:28:02.885Z,10.60
2024-01-26T16:30:25.752Z,10.57
2024-01-26T16:32:47.813Z,10.57
2024-01-26T16:35:10.366Z,10.54
2024-01-26T16:37:33.902Z,10.48
2024-01-26T16:39:56.485Z,10.39
2024-01-26T16:42:18.435Z,10.37
2024-01-26T16:44:41.718Z,10.32
2024-01-26T16:47:03.810Z,10.24
2024-01-26T16:49:25.847Z,10.21
2024-01-26T16:51:47.759Z,10.24
2024-01-26T16:54:09.863Z,10.22
2024-01-26T16:56:31.794Z,10.19
2024-01-26T16:58:53.733Z,10.13
2024-01-26T17:01:16.465Z,10.07
2024-01-26T17:03:38.560Z,9.99
2024-01-26T17:06:02.172Z,9.93
2024-01-26T17:08:28.494Z,9.91
2024-01-26T17:10:50.349Z,9.88
2024-01-26T17:13:12.288Z,9.89
2024-01-26T17:15:34.218Z,9.83
2024-01-26T17:17:57.284Z,9.80
2024-01-26T17:20:19.686Z,9.77
2024-01-26T17:22:41.533Z,9.76
2024-01-26T17:25:07.590Z,9.76
2024-01-26T17:27:29.519Z,9.74
2024-01-26T17:29:51.468Z,9.70
2024-01-26T17:32:14.007Z,9.65
2024-01-26T17:34:36.007Z,9.59
2024-01-26T17:36:58.066Z,9.55
2024-01-26T17:39:21.021Z,9.52
2024-01-26T17:41:43.216Z,9.48
2024-01-26T17:44:05.444Z,9.45
2024-01-26T17:46:27.804Z,9.37
2024-01-26T17:48:50.040Z,9.36
2024-01-26T17:51:12.050Z,9.36
2024-01-26T17:53:33.976Z,9.35
2024-01-26T17:55:56.016Z,9.32
2024-01-26T17:58:18.840Z,9.17
2024-01-26T18:00:42.917Z,9.12
2024-01-26T18:03:05.628Z,9.03
2024-01-26T18:05:28.627Z,8.94
2024-01-26T18:07:51.142Z,8.87
2024-01-26T18:10:13.127Z,8.80
2024-01-26T18:12:35.011Z,8.74
2024-01-26T18:14:57.365Z,8.75
2024-01-26T18:17:19.717Z,8.65
2024-01-26T18:19:43.546Z,8.62
2024-01-26T18:22:05.477Z,8.63
2024-01-26T18:24:27.451Z,8.67
2024-01-26T18:26:50.801Z,8.70
2024-01-26T18:29:13.014Z,8.73
2024-01-26T18:31:34.867Z,8.69
2024-01-26T18:33:56.931Z,8.68
2024-01-26T18:36:19.314Z,8.65
2024-01-26T18:38:44.534Z,8.64
2024-01-26T18:41:08.949Z,8.64
2024-01-26T18:43:30.847Z,8.60
2024-01-26T18:45:52.781Z,8.59
2024-01-26T18:48:15.218Z,8.55
2024-01-26T18:50:37.195Z,8.52
2024-01-26T18:52:59.444Z,8.52
2024-01-26T18:55:21.408Z,8.33
2024-01-26T18:57:44.295Z,8.29
2024-01-26T19:00:08.035Z,8.28
2024-01-26T19:02:30.293Z,8.24
2024-01-26T19:04:52.892Z,8.21
2024-01-26T19:07:14.890Z,8.19
2024-01-26T19:09:37.651Z,8.18
2024-01-26T19:12:00.670Z,8.12
2024-01-26T19:14:23.912Z,8.10
2024-01-26T19:16:46.449Z,8.06
2024-01-26T19:19:08.573Z,8.01
2024-01-26T19:21:30.634Z,7.98
2024-01-26T19:23:52.755Z,7.96
2024-01-26T19:26:14.714Z,7.91
2024-01-26T19:28:37.003Z,7.86
2024-01-26T19:30:59.780Z,7.81
2024-01-26T19:33:21.907Z,7.79
2024-01-26T19:35:44.047Z,7.74
2024-01-26T19:38:05.975Z,7.68
2024-01-26T19:40:27.906Z,7.65
2024-01-26T19:42:50.760Z,7.58
2024-01-26T19:45:12.895Z,7.48
2024-01-26T19:47:35.557Z,7.47
2024-01-26T19:49:58.779Z,7.40
2024-01-26T19:52:20.744Z,7.14
2024-01-26T19:54:42.680Z,6.99
2024-01-26T19:57:05.042Z,6.95
2024-01-26T19:59:27.028Z,7.01
2024-01-26T20:01:48.913Z,7.11
2024-01-26T20:04:11.082Z,7.14
2024-01-26T20:06:33.172Z,7.12
2024-01-26T20:08:55.909Z,7.02
2024-01-26T20:11:18.122Z,7.04
2024-01-26T20:13:40.120Z,7.05
2024-01-26T20:16:06.860Z,7.12
2024-01-26T20:18:28.932Z,7.11
2024-01-26T20:20:51.009Z,7.13
2024-01-26T20:23:13.166Z,7.17
2024-01-26T20:25:35.318Z,7.17
2024-01-26T20:27:57.497Z,7.18
2024-01-26T20:30:24.291Z,7.17
2024-01-26T20:32:46.402Z,7.16
2024-01-26T20:35:09.194Z,7.16
2024-01-26T20:37:31.194Z,7.13
2024-01-26T20:39:53.132Z,7.09
2024-01-26T20:42:15.192Z,7.01
2024-01-26T20:44:37.190Z,7.00
2024-01-26T20:46:59.174Z,6.94
2024-01-26T20:49:21.199Z,6.98
2024-01-26T20:51:43.484Z,6.93
2024-01-26T20:54:06.224Z,6.85
2024-01-26T20:56:29.992Z,6.84
2024-01-26T20:58:52.039Z,6.81
2024-01-26T21:01:14.026Z,6.85
2024-01-26T21:03:36.013Z,6.85
2024-01-26T21:05:58.173Z,6.82
2024-01-26T21:08:20.532Z,6.80
2024-01-26T21:10:43.234Z,6.79
2024-01-26T21:13:05.210Z,6.77
2024-01-26T21:15:27.454Z,6.74
2024-01-26T21:17:49.577Z,6.71
2024-01-26T21:20:12.455Z,6.71
2024-01-26T21:22:34.505Z,6.69
2024-01-26T21:24:56.510Z,6.66
2024-01-26T21:27:19.499Z,6.65
2024-01-26T21:29:41.539Z,6.61
2024-01-26T21:32:03.881Z,6.55
2024-01-26T21:34:25.981Z,6.54
2024-01-26T21:36:48.323Z,6.53
2024-01-26T21:39:11.154Z,6.49
2024-01-26T21:41:34.515Z,6.52
2024-01-26T21:44:01.479Z,6.55
2024-01-26T21:46:23.868Z,6.62
2024-01-26T21:48:46.540Z,6.64
2024-01-26T21:51:08.611Z,6.66
2024-01-26T21:53:30.706Z,6.64
2024-01-26T21:55:53.006Z,6.66
2024-01-26T21:58:15.547Z,6.65
2024-01-26T22:00:37.688Z,6.59
2024-01-26T22:03:01.019Z,6.43
2024-01-26T22:05:23.059Z,6.44
2024-01-26T22:07:46.522Z,6.43
2024-01-26T22:10:09.090Z,6.38
2024-01-26T22:12:31.272Z,6.31
2024-01-26T22:14:53.337Z,6.26
2024-01-26T22:17:15.625Z,6.24
2024-01-26T22:19:38.073Z,6.20
2024-01-26T22:22:00.124Z,6.19
2024-01-26T22:24:22.132Z,6.13
2024-01-26T22:26:44.213Z,6.09
2024-01-26T22:29:06.147Z,6.08
2024-01-26T22:31:28.712Z,6.10
2024-01-26T22:33:50.716Z,6.11
2024-01-26T22:36:12.851Z,6.12
2024-01-26T22:38:34.727Z,6.08
2024-01-26T22:40:56.717Z,6.01
2024-01-26T22:43:18.617Z,5.96
2024-01-26T22:45:41.048Z,5.93
2024-01-26T22:48:03.386Z,5.91
2024-01-26T22:50:25.522Z,5.90
2024-01-26T22:52:49.409Z,5.93
2024-01-26T22:55:11.426Z,5.93
2024-01-26T22:57:34.249Z,5.93
2024-01-26T22:59:56.302Z,5.93
2024-01-26T23:02:18.213Z,5.92
2024-01-26T23:04:40.778Z,5.93
2024-01-26T23:07:03.985Z,5.78
2024-01-26T23:09:26.019Z,5.79
2024-01-26T23:11:47.922Z,5.71
2024-01-26T23:14:09.963Z,5.65
2024-01-26T23:16:31.964Z,5.61
2024-01-26T23:18:54.727Z,5.60
2024-01-26T23:21:16.796Z,5.54
2024-01-26T23:23:38.748Z,5.49
2024-01-26T23:26:00.868Z,5.42
2024-01-26T23:28:24.338Z,5.40
2024-01-26T23:30:46.703Z,5.38
2024-01-26T23:33:09.293Z,5.41
2024-01-26T23:35:31.249Z,5.40
2024-01-26T23:37:53.082Z,5.43
2024-01-26T23:40:15.016Z,5.42
2024-01-26T23:42:36.972Z,5.42
2024-01-26T23:44:58.918Z,5.42
2024-01-26T23:47:20.787Z,5.39
2024-01-26T23:49:42.988Z,5.35
2024-01-26T23:52:05.534Z,5.33
2024-01-26T23:54:27.486Z,5.31
2024-01-26T23:56:50.543Z,5.26
2024-01-26T23:59:12.402Z,5.10
